createdAt,value
2017-12-31T00:01:59.479Z,15.24
2017-12-31T00:04:31.187Z,15.20
2017-12-31T00:07:02.235Z,15.14
2017-12-31T00:09:33.932Z,15.11
2017-12-31T00:12:04.711Z,15.14
2017-12-31T00:14:35.320Z,15.14
2017-12-31T00:17:07.310Z,15.15
2017-12-31T00:19:37.860Z,15.15
2017-12-31T00:22:08.924Z,14.90
2017-12-31T00:24:40.080Z,14.96
2017-12-31T00:27:11.278Z,14.97
2017-12-31T00:29:43.088Z,14.85
2017-12-31T00:32:14.870Z,14.83
2017-12-31T00:34:46.246Z,14.87
2017-12-31T00:37:17.434Z,14.92
2017-12-31T00:39:50.379Z,14.98
2017-12-31T00:42:49.452Z,14.79
2017-12-31T00:45:20.335Z,14.73
2017-12-31T00:50:22.571Z,14.84
2017-12-31T00:53:00.331Z,14.68
2017-12-31T00:55:34.408Z,14.51
2017-12-31T00:58:05.542Z,14.47
2017-12-31T01:00:36.274Z,14.58
2017-12-31T01:03:07.178Z,14.53
2017-12-31T01:05:40.732Z,14.37
2017-12-31T01:08:11.161Z,14.35
2017-12-31T01:10:45.410Z,14.26
2017-12-31T01:13:15.907Z,14.17
2017-12-31T01:15:47.379Z,14.23
2017-12-31T01:18:18.196Z,14.07
2017-12-31T01:20:49.346Z,13.78
2017-12-31T01:23:19.986Z,13.78
2017-12-31T01:25:51.880Z,13.97
2017-12-31T01:28:23.940Z,14.07
2017-12-31T01:30:59.942Z,13.85
2017-12-31T01:33:31.026Z,13.97
2017-12-31T01:36:01.518Z,13.77
2017-12-31T01:38:32.535Z,13.70
2017-12-31T01:41:03.260Z,13.77
2017-12-31T01:43:35.410Z,13.75
2017-12-31T01:46:06.651Z,13.84
2017-12-31T01:48:42.487Z,13.52
2017-12-31T01:51:13.378Z,13.64
2017-12-31T01:53:43.929Z,13.63
2017-12-31T01:56:14.317Z,13.79
2017-12-31T01:58:45.647Z,13.65
2017-12-31T02:01:16.332Z,13.38
2017-12-31T02:03:47.261Z,13.47
2017-12-31T02:06:18.128Z,13.59
2017-12-31T02:08:48.591Z,13.60
2017-12-31T02:11:19.013Z,13.37
2017-12-31T02:13:50.592Z,13.41
2017-12-31T02:16:21.652Z,13.44
2017-12-31T02:18:52.340Z,13.33
2017-12-31T02:21:22.711Z,13.28
2017-12-31T02:23:53.190Z,13.46
2017-12-31T02:26:23.849Z,13.34
2017-12-31T02:28:54.371Z,13.15
2017-12-31T02:31:26.563Z,13.15
2017-12-31T02:33:57.479Z,13.09
2017-12-31T02:36:28.934Z,13.23
2017-12-31T02:38:59.905Z,13.05
2017-12-31T02:41:30.813Z,12.69
2017-12-31T02:44:01.699Z,12.50
2017-12-31T02:46:35.524Z,12.76
2017-12-31T02:49:06.204Z,12.34
2017-12-31T02:51:36.657Z,12.34
2017-12-31T02:54:07.083Z,12.35
2017-12-31T02:56:38.401Z,12.12
2017-12-31T02:59:09.884Z,12.02
2017-12-31T03:01:41.167Z,12.04
2017-12-31T03:04:11.889Z,12.39
2017-12-31T03:06:42.430Z,12.27
2017-12-31T03:09:12.965Z,12.47
2017-12-31T03:11:43.867Z,12.38
2017-12-31T03:14:14.740Z,12.12
2017-12-31T03:16:45.711Z,12.30
2017-12-31T03:19:16.435Z,12.44
2017-12-31T03:21:48.748Z,12.17
2017-12-31T03:24:20.039Z,12.04
2017-12-31T03:27:00.765Z,12.25
2017-12-31T03:29:33.097Z,12.08
2017-12-31T03:32:06.239Z,11.97
2017-12-31T03:34:36.644Z,12.12
2017-12-31T03:37:07.058Z,12.15
2017-12-31T03:39:37.711Z,12.16
2017-12-31T03:42:08.632Z,12.20
2017-12-31T03:44:39.025Z,12.16
2017-12-31T03:47:09.786Z,12.15
2017-12-31T03:49:40.467Z,11.97
2017-12-31T03:52:11.154Z,12.23
2017-12-31T03:54:42.047Z,12.46
2017-12-31T03:57:12.592Z,12.52
2017-12-31T03:59:43.070Z,12.23
2017-12-31T04:02:13.792Z,12.25
2017-12-31T04:04:44.432Z,12.31
2017-12-31T04:07:15.360Z,12.48
2017-12-31T04:09:45.765Z,12.60
2017-12-31T04:12:16.717Z,12.83
2017-12-31T04:14:49.392Z,12.97
2017-12-31T04:17:20.025Z,13.01
2017-12-31T04:19:50.384Z,13.13
2017-12-31T04:22:21.025Z,13.23
2017-12-31T04:25:00.271Z,13.34
2017-12-31T04:27:31.321Z,13.53
2017-12-31T04:30:04.819Z,13.59
2017-12-31T04:32:36.706Z,13.62
2017-12-31T04:35:07.339Z,13.62
2017-12-31T04:37:37.862Z,13.85
2017-12-31T04:40:08.182Z,14.10
2017-12-31T04:42:39.145Z,14.14
2017-12-31T04:45:09.420Z,14.23
2017-12-31T04:47:48.134Z,14.37
2017-12-31T04:50:18.574Z,14.36
2017-12-31T04:52:48.993Z,14.45
2017-12-31T04:55:20.115Z,14.39
2017-12-31T04:57:50.653Z,14.54
2017-12-31T05:00:24.552Z,14.50
2017-12-31T05:02:55.916Z,14.48
2017-12-31T05:05:26.952Z,14.54
2017-12-31T05:07:57.638Z,14.62
2017-12-31T05:10:29.484Z,14.65
2017-12-31T05:12:59.894Z,14.57
2017-12-31T05:15:31.828Z,14.52
2017-12-31T05:18:02.766Z,14.55
2017-12-31T05:20:36.236Z,14.66
2017-12-31T05:23:07.830Z,14.52
2017-12-31T05:25:38.273Z,14.56
2017-12-31T05:28:08.993Z,14.61
2017-12-31T05:30:39.782Z,14.66
2017-12-31T05:33:10.474Z,14.62
2017-12-31T05:35:40.982Z,14.73
2017-12-31T05:38:11.619Z,14.92
2017-12-31T05:40:43.500Z,14.82
2017-12-31T05:43:13.963Z,14.88
2017-12-31T05:45:44.933Z,14.91
2017-12-31T05:48:16.544Z,14.95
2017-12-31T05:50:47.117Z,14.90
2017-12-31T05:53:18.016Z,14.91
2017-12-31T05:55:48.800Z,14.91
2017-12-31T05:58:19.275Z,14.97
2017-12-31T06:00:51.450Z,15.00
2017-12-31T06:03:22.310Z,15.02
2017-12-31T06:05:52.864Z,14.92
2017-12-31T06:08:23.673Z,15.04
2017-12-31T06:10:54.265Z,15.11
2017-12-31T06:13:25.171Z,15.13
2017-12-31T06:15:57.139Z,15.11
2017-12-31T06:18:27.451Z,15.22
2017-12-31T06:20:59.582Z,15.35
2017-12-31T06:23:31.311Z,15.28
2017-12-31T06:26:01.816Z,15.26
2017-12-31T06:28:32.382Z,15.23
2017-12-31T06:31:03.057Z,15.25
2017-12-31T06:33:34.088Z,15.22
2017-12-31T06:36:04.945Z,15.32
2017-12-31T06:38:36.496Z,15.24
2017-12-31T06:41:07.012Z,15.30
2017-12-31T06:43:37.365Z,15.39
2017-12-31T06:46:08.910Z,15.22
2017-12-31T06:48:39.716Z,15.49
2017-12-31T06:51:11.110Z,15.45
2017-12-31T06:53:42.154Z,15.54
2017-12-31T06:56:13.052Z,15.54
2017-12-31T06:58:44.128Z,15.55
2017-12-31T07:01:14.775Z,15.56
2017-12-31T07:03:49.701Z,15.39
2017-12-31T07:06:20.192Z,15.42
2017-12-31T07:08:51.997Z,15.45
2017-12-31T07:11:22.449Z,15.47
2017-12-31T07:13:53.381Z,15.48
2017-12-31T07:16:23.746Z,15.43
2017-12-31T07:18:54.156Z,15.59
2017-12-31T07:21:24.638Z,15.49
2017-12-31T07:23:55.646Z,15.65
2017-12-31T07:26:26.110Z,15.69
2017-12-31T07:28:56.906Z,15.53
2017-12-31T07:31:27.949Z,15.52
2017-12-31T07:33:59.333Z,15.65
2017-12-31T07:36:40.942Z,15.54
2017-12-31T07:39:11.470Z,15.65
2017-12-31T07:41:43.095Z,15.62
2017-12-31T07:44:13.947Z,15.70
2017-12-31T07:46:44.388Z,15.54
2017-12-31T07:49:15.478Z,15.57
2017-12-31T07:51:46.992Z,15.61
2017-12-31T07:54:17.571Z,15.55
2017-12-31T07:56:49.166Z,15.62
2017-12-31T07:59:19.808Z,15.69
2017-12-31T08:01:51.339Z,15.62
2017-12-31T08:04:21.809Z,15.71
2017-12-31T08:06:52.276Z,15.73
2017-12-31T08:09:23.107Z,15.81
2017-12-31T08:11:53.796Z,15.74
2017-12-31T08:14:34.493Z,15.70
2017-12-31T08:17:06.368Z,15.80
2017-12-31T08:19:37.599Z,15.83
2017-12-31T08:22:08.082Z,15.70
2017-12-31T08:24:38.409Z,15.65
2017-12-31T08:27:08.913Z,15.65
2017-12-31T08:29:39.626Z,15.67
2017-12-31T08:32:10.402Z,15.76
2017-12-31T08:34:41.032Z,15.56
2017-12-31T08:37:12.302Z,15.65
2017-12-31T08:39:42.785Z,15.68
2017-12-31T08:42:13.229Z,15.65
2017-12-31T08:44:44.319Z,15.63
2017-12-31T08:47:15.155Z,15.74
2017-12-31T08:49:46.385Z,15.83
2017-12-31T08:52:17.341Z,15.83
2017-12-31T08:54:49.378Z,15.65
2017-12-31T08:57:28.080Z,15.51
2017-12-31T08:59:58.494Z,15.74
2017-12-31T09:02:29.742Z,15.73
2017-12-31T09:05:00.654Z,15.62
2017-12-31T09:07:32.028Z,15.66
2017-12-31T09:10:02.577Z,15.55
2017-12-31T09:12:33.246Z,15.70
2017-12-31T09:15:06.545Z,15.83
2017-12-31T09:17:37.213Z,15.71
2017-12-31T09:20:07.912Z,15.84
2017-12-31T09:22:38.811Z,15.76
2017-12-31T09:25:09.583Z,15.81
2017-12-31T09:27:39.928Z,15.87
2017-12-31T09:30:14.961Z,15.83
2017-12-31T09:32:46.571Z,15.76
2017-12-31T09:35:17.367Z,15.64
2017-12-31T09:37:49.580Z,15.80
2017-12-31T09:40:23.102Z,15.96
2017-12-31T09:42:54.034Z,15.89
2017-12-31T09:45:25.204Z,15.85
2017-12-31T09:47:55.988Z,15.89
2017-12-31T09:50:26.508Z,15.68
2017-12-31T09:52:57.734Z,15.80
2017-12-31T09:55:29.055Z,16.02
2017-12-31T09:57:59.930Z,15.91
2017-12-31T10:00:31.645Z,15.77
2017-12-31T10:03:02.959Z,15.88
2017-12-31T10:05:33.922Z,15.90
2017-12-31T10:08:04.535Z,16.05
2017-12-31T10:10:35.064Z,16.06
2017-12-31T10:13:05.884Z,15.99
2017-12-31T10:15:36.851Z,15.86
2017-12-31T10:18:08.300Z,15.95
2017-12-31T10:20:39.022Z,15.93
2017-12-31T10:23:10.519Z,16.14
2017-12-31T10:25:42.018Z,16.05
2017-12-31T10:28:12.888Z,16.24
2017-12-31T10:30:44.855Z,16.15
2017-12-31T10:33:16.335Z,16.37
2017-12-31T10:35:48.105Z,16.34
2017-12-31T10:38:38.621Z,15.99
2017-12-31T10:41:09.885Z,16.19
2017-12-31T10:43:40.592Z,16.21
2017-12-31T10:46:12.885Z,16.20
2017-12-31T10:48:43.700Z,16.15
2017-12-31T10:51:14.223Z,16.17
2017-12-31T10:53:46.596Z,16.19
2017-12-31T10:56:24.450Z,16.20
2017-12-31T10:58:56.075Z,16.40
2017-12-31T11:01:27.204Z,16.39
2017-12-31T11:03:58.563Z,16.41
2017-12-31T11:06:30.775Z,16.35
2017-12-31T11:09:02.452Z,16.46
2017-12-31T11:11:35.314Z,16.41
2017-12-31T11:14:06.666Z,16.33
2017-12-31T11:16:39.629Z,16.64
2017-12-31T11:19:10.353Z,16.61
2017-12-31T11:21:41.253Z,16.52
2017-12-31T11:24:14.675Z,16.35
2017-12-31T11:26:46.629Z,16.50
2017-12-31T11:29:38.849Z,16.47
2017-12-31T11:32:10.370Z,16.60
2017-12-31T11:34:41.280Z,16.68
2017-12-31T11:37:12.211Z,16.78
2017-12-31T11:39:42.796Z,16.69
2017-12-31T11:42:13.794Z,16.74
2017-12-31T11:44:44.351Z,16.70
2017-12-31T11:47:15.213Z,16.81
2017-12-31T11:49:46.117Z,16.95
2017-12-31T11:52:16.975Z,16.89
2017-12-31T11:54:48.829Z,17.07
2017-12-31T11:57:20.401Z,16.99
2017-12-31T11:59:52.116Z,17.20
2017-12-31T12:02:23.456Z,17.09
2017-12-31T12:04:55.298Z,17.11
2017-12-31T12:07:27.265Z,17.01
2017-12-31T12:09:57.655Z,17.03
2017-12-31T12:12:28.226Z,17.05
2017-12-31T12:14:59.457Z,16.74
2017-12-31T12:17:30.404Z,16.92
2017-12-31T12:20:04.355Z,16.76
2017-12-31T12:22:36.673Z,16.79
2017-12-31T12:25:12.855Z,16.84
2017-12-31T12:27:50.458Z,17.00
2017-12-31T12:30:22.357Z,17.12
2017-12-31T12:32:53.810Z,17.09
2017-12-31T12:35:30.933Z,17.01
2017-12-31T12:38:02.551Z,16.82
2017-12-31T12:40:34.647Z,16.84
2017-12-31T12:43:06.160Z,16.79
2017-12-31T12:45:37.205Z,16.93
2017-12-31T12:48:07.899Z,16.86
2017-12-31T12:50:38.430Z,17.06
2017-12-31T12:53:09.087Z,16.92
2017-12-31T12:55:41.000Z,17.00
2017-12-31T12:58:11.575Z,17.08
2017-12-31T13:00:42.295Z,17.36
2017-12-31T13:03:14.648Z,17.11
2017-12-31T13:05:45.403Z,17.10
2017-12-31T13:08:16.606Z,17.12
2017-12-31T13:10:48.054Z,16.83
2017-12-31T13:13:18.779Z,16.76
2017-12-31T13:15:50.207Z,16.90
2017-12-31T13:18:21.458Z,16.85
2017-12-31T13:20:53.026Z,16.80
2017-12-31T13:23:23.775Z,16.90
2017-12-31T13:25:54.453Z,16.97
2017-12-31T13:28:30.629Z,16.98
2017-12-31T13:31:03.454Z,17.00
2017-12-31T13:36:08.596Z,17.03
2017-12-31T13:38:39.150Z,16.90
2017-12-31T13:41:16.600Z,16.88
2017-12-31T13:43:52.779Z,16.87
2017-12-31T13:46:23.774Z,17.11
2017-12-31T13:48:54.825Z,16.93
2017-12-31T13:51:25.728Z,16.95
2017-12-31T13:53:58.160Z,16.98
2017-12-31T13:59:07.960Z,16.82
2017-12-31T14:01:39.571Z,16.83
2017-12-31T14:04:10.628Z,16.81
2017-12-31T14:06:41.510Z,16.67
2017-12-31T14:09:12.506Z,16.67
2017-12-31T14:11:45.065Z,16.81
2017-12-31T14:14:22.456Z,16.62
2017-12-31T14:16:57.919Z,16.69
2017-12-31T14:19:33.992Z,16.77
2017-12-31T14:22:16.246Z,16.71
2017-12-31T14:24:53.611Z,16.63
2017-12-31T14:27:25.078Z,16.53
2017-12-31T14:29:55.740Z,16.64
2017-12-31T14:32:27.086Z,16.73
2017-12-31T14:34:58.240Z,16.64
2017-12-31T14:37:29.564Z,16.79
2017-12-31T14:42:42.230Z,16.64
2017-12-31T14:45:24.661Z,16.71
2017-12-31T14:47:56.274Z,16.76
2017-12-31T14:50:28.048Z,16.67
2017-12-31T14:53:01.472Z,16.53
2017-12-31T14:55:40.640Z,16.56
2017-12-31T14:58:14.639Z,16.63
2017-12-31T15:00:46.262Z,16.82
2017-12-31T15:03:19.306Z,16.61
2017-12-31T15:05:52.081Z,16.60
2017-12-31T15:08:22.998Z,16.46
2017-12-31T15:10:53.625Z,16.51
2017-12-31T15:13:26.984Z,16.73
2017-12-31T15:16:07.187Z,16.51
2017-12-31T15:18:39.238Z,16.67
2017-12-31T15:21:11.783Z,16.66
2017-12-31T15:23:43.423Z,16.81
2017-12-31T15:26:15.388Z,16.73
2017-12-31T15:28:47.513Z,16.66
2017-12-31T15:31:24.908Z,16.64
2017-12-31T15:33:55.539Z,16.71
2017-12-31T15:36:26.945Z,16.68
2017-12-31T15:38:57.660Z,16.79
2017-12-31T15:41:28.828Z,16.71
2017-12-31T15:43:59.614Z,16.72
2017-12-31T15:46:31.689Z,16.77
2017-12-31T15:49:02.648Z,16.66
2017-12-31T15:51:34.848Z,16.73
2017-12-31T15:54:05.350Z,16.76
2017-12-31T15:56:36.569Z,16.66
2017-12-31T15:59:14.984Z,16.34
2017-12-31T16:01:46.495Z,16.65
2017-12-31T16:04:17.573Z,16.70
2017-12-31T16:06:49.175Z,16.65
2017-12-31T16:09:20.249Z,16.62
2017-12-31T16:12:02.983Z,16.43
2017-12-31T16:14:34.598Z,16.45
2017-12-31T16:17:05.836Z,16.40
2017-12-31T16:19:36.496Z,16.51
2017-12-31T16:22:07.942Z,16.41
2017-12-31T16:27:21.535Z,16.80
2017-12-31T16:29:52.329Z,16.71
2017-12-31T16:32:24.700Z,16.71
2017-12-31T16:34:57.800Z,16.54
2017-12-31T16:37:29.115Z,16.49
2017-12-31T16:40:01.555Z,16.57
2017-12-31T16:42:32.157Z,16.74
2017-12-31T16:45:04.868Z,16.50
2017-12-31T16:47:38.171Z,16.49
2017-12-31T16:50:09.348Z,16.44
2017-12-31T16:52:40.541Z,16.25
2017-12-31T16:55:11.441Z,16.45
2017-12-31T16:57:42.433Z,16.49
2017-12-31T17:00:28.706Z,16.41
2017-12-31T17:03:00.943Z,16.47
2017-12-31T17:05:32.412Z,16.42
2017-12-31T17:08:05.141Z,16.49
2017-12-31T17:10:38.644Z,16.25
2017-12-31T17:13:10.321Z,16.32
2017-12-31T17:15:41.690Z,16.40
2017-12-31T17:18:12.355Z,16.27
2017-12-31T17:20:43.256Z,16.23
2017-12-31T17:23:14.541Z,16.23
2017-12-31T17:25:45.194Z,16.32
2017-12-31T17:28:16.657Z,16.45
2017-12-31T17:30:48.286Z,16.50
2017-12-31T17:33:18.667Z,16.52
2017-12-31T17:35:50.265Z,16.37
2017-12-31T17:38:21.319Z,16.40
2017-12-31T17:40:52.841Z,16.25
2017-12-31T17:43:27.642Z,16.26
2017-12-31T17:45:59.444Z,16.07
2017-12-31T17:48:30.801Z,15.99
2017-12-31T17:51:02.422Z,15.91
2017-12-31T17:53:33.861Z,15.81
2017-12-31T17:56:05.266Z,15.77
2017-12-31T17:58:35.824Z,15.91
2017-12-31T18:01:06.979Z,15.81
2017-12-31T18:03:40.959Z,15.84
2017-12-31T18:06:12.041Z,15.74
2017-12-31T18:08:43.249Z,15.42
2017-12-31T18:11:14.870Z,15.57
2017-12-31T18:13:45.637Z,15.53
2017-12-31T18:16:16.406Z,15.44
2017-12-31T18:18:51.073Z,15.46
2017-12-31T18:21:23.044Z,15.46
2017-12-31T18:23:53.556Z,15.62
2017-12-31T18:26:25.446Z,15.61
2017-12-31T18:28:57.820Z,15.39
2017-12-31T18:31:53.824Z,15.39
2017-12-31T18:34:38.012Z,15.44
2017-12-31T18:37:28.024Z,15.57
2017-12-31T18:40:08.093Z,15.55
2017-12-31T18:42:42.511Z,15.68
2017-12-31T18:45:20.166Z,15.54
2017-12-31T18:47:56.134Z,15.62
2017-12-31T18:50:27.055Z,15.65
2017-12-31T18:52:57.757Z,15.72
2017-12-31T18:55:28.703Z,15.87
2017-12-31T18:57:59.686Z,15.70
2017-12-31T19:00:37.336Z,15.70
2017-12-31T19:03:09.378Z,15.84
2017-12-31T19:05:40.298Z,15.74
2017-12-31T19:08:11.203Z,15.83
2017-12-31T19:10:42.633Z,15.79
2017-12-31T19:13:13.625Z,15.61
2017-12-31T19:15:47.095Z,15.83
2017-12-31T19:18:19.161Z,15.75
2017-12-31T19:20:50.794Z,15.82
2017-12-31T19:23:21.860Z,15.82
2017-12-31T19:25:55.167Z,15.52
2017-12-31T19:28:26.393Z,15.61
2017-12-31T19:30:58.734Z,15.60
2017-12-31T19:33:29.614Z,15.61
2017-12-31T19:36:01.169Z,15.59
2017-12-31T19:38:33.352Z,15.61
2017-12-31T19:41:04.525Z,15.49
2017-12-31T19:43:36.131Z,14.72
2017-12-31T19:46:07.185Z,13.81
2017-12-31T19:48:38.563Z,13.53
2017-12-31T19:51:10.239Z,13.10
2017-12-31T19:53:41.114Z,12.92
2017-12-31T19:56:12.963Z,12.80
2017-12-31T19:58:45.028Z,12.74
2017-12-31T20:01:15.718Z,12.75
2017-12-31T20:03:47.754Z,12.64
2017-12-31T20:08:56.464Z,12.53
2017-12-31T20:11:27.174Z,12.53
2017-12-31T20:13:59.089Z,12.59
2017-12-31T20:16:30.566Z,12.54
2017-12-31T20:19:01.162Z,12.49
2017-12-31T20:21:34.078Z,12.39
2017-12-31T20:24:05.135Z,12.26
2017-12-31T20:26:35.896Z,12.33
2017-12-31T20:29:06.271Z,12.43
2017-12-31T20:31:37.301Z,12.49
2017-12-31T20:34:10.446Z,12.40
2017-12-31T20:36:41.005Z,12.44
2017-12-31T20:39:11.512Z,12.52
2017-12-31T20:41:43.967Z,12.56
2017-12-31T20:44:16.907Z,12.42
2017-12-31T20:46:49.784Z,12.45
2017-12-31T20:49:24.433Z,12.58
2017-12-31T20:52:00.536Z,12.62
2017-12-31T20:54:36.880Z,12.57
2017-12-31T20:57:09.740Z,12.56
2017-12-31T20:59:40.993Z,12.57
2017-12-31T21:02:13.484Z,12.54
2017-12-31T21:04:46.493Z,12.52
2017-12-31T21:07:20.168Z,12.59
2017-12-31T21:09:58.519Z,12.56
2017-12-31T21:12:32.925Z,12.51
2017-12-31T21:15:07.000Z,12.55
2017-12-31T21:17:38.480Z,12.48
2017-12-31T21:20:08.968Z,12.53
2017-12-31T21:25:21.979Z,12.44
2017-12-31T21:27:52.865Z,12.45
2017-12-31T21:30:24.263Z,12.36
2017-12-31T21:32:55.054Z,12.32
2017-12-31T21:35:26.810Z,12.44
2017-12-31T21:37:57.661Z,12.47
2017-12-31T21:40:29.387Z,12.48
2017-12-31T21:42:59.757Z,12.51
2017-12-31T21:48:06.478Z,12.52
2017-12-31T21:50:37.033Z,12.60
2017-12-31T21:53:07.498Z,12.58
2017-12-31T21:55:39.716Z,12.61
2017-12-31T21:58:10.866Z,12.62
2017-12-31T22:00:43.374Z,12.65
2017-12-31T22:03:14.844Z,12.73
2017-12-31T22:05:45.880Z,12.67
2017-12-31T22:08:17.198Z,12.59
2017-12-31T22:10:47.962Z,12.63
2017-12-31T22:13:18.491Z,12.62
2017-12-31T22:15:50.394Z,12.69
2017-12-31T22:18:22.349Z,12.79
2017-12-31T22:20:53.452Z,12.79
2017-12-31T22:23:25.295Z,12.79
2017-12-31T22:25:55.983Z,12.64
2017-12-31T22:28:26.938Z,12.76
2017-12-31T22:30:57.442Z,12.82
2017-12-31T22:33:29.298Z,12.82
2017-12-31T22:36:00.219Z,12.35
2017-12-31T22:38:31.429Z,11.99
2017-12-31T22:41:02.137Z,11.70
2017-12-31T22:43:33.615Z,11.38
2017-12-31T22:46:05.477Z,11.31
2017-12-31T22:48:36.951Z,11.21
2017-12-31T22:51:07.319Z,10.89
2017-12-31T22:53:38.815Z,10.84
2017-12-31T22:56:09.871Z,10.69
2017-12-31T22:58:40.566Z,10.69
2017-12-31T23:01:13.451Z,10.84
2017-12-31T23:04:01.135Z,10.76
2017-12-31T23:06:33.401Z,10.84
2017-12-31T23:09:04.545Z,10.72
2017-12-31T23:11:43.687Z,10.83
2017-12-31T23:14:24.377Z,10.91
2017-12-31T23:17:00.691Z,11.02
2017-12-31T23:19:33.725Z,10.93
2017-12-31T23:22:04.873Z,11.07
2017-12-31T23:27:25.742Z,11.12
2017-12-31T23:29:56.925Z,11.00
2017-12-31T23:32:27.894Z,11.03
2017-12-31T23:34:59.436Z,11.06
2017-12-31T23:37:40.422Z,11.19
2017-12-31T23:40:12.860Z,11.12
2017-12-31T23:42:46.037Z,11.12
2017-12-31T23:45:18.047Z,11.24
2017-12-31T23:47:48.665Z,11.08
2017-12-31T23:50:20.987Z,11.12
2017-12-31T23:52:52.412Z,11.15
2017-12-31T23:55:24.429Z,11.12
2017-12-31T23:57:56.443Z,11.02
